createdAt,value
2022-12-01T00:00:56.043Z,26.47
2022-12-01T00:03:23.449Z,27.83
2022-12-01T00:06:00.958Z,26.83
2022-12-01T00:08:28.591Z,25.93
2022-12-01T00:10:57.197Z,28.53
2022-12-01T00:13:24.540Z,28.27
2022-12-01T00:15:51.920Z,27.77
2022-12-01T00:18:19.287Z,29.60
2022-12-01T00:20:50.887Z,30.27
2022-12-01T00:23:18.244Z,30.27
2022-12-01T00:25:45.587Z,33.40
2022-12-01T00:28:13.014Z,30.27
2022-12-01T00:30:40.330Z,29.60
2022-12-01T00:33:07.704Z,31.30
2022-12-01T00:35:35.253Z,34.30
2022-12-01T00:38:02.616Z,31.07
2022-12-01T00:40:29.980Z,32.47
2022-12-01T00:42:57.331Z,32.50
2022-12-01T00:45:24.674Z,35.70
2022-12-01T00:47:52.035Z,39.23
2022-12-01T00:50:19.454Z,35.40
2022-12-01T00:52:46.815Z,39.20
2022-12-01T00:55:14.156Z,40.43
2022-12-01T00:57:41.537Z,36.70
2022-12-01T01:00:09.299Z,33.07
2022-12-01T01:02:39.137Z,36.73
2022-12-01T01:05:07.176Z,39.17
2022-12-01T01:07:34.568Z,38.67
2022-12-01T01:10:01.933Z,39.17
2022-12-01T01:12:29.430Z,36.37
2022-12-01T01:14:56.748Z,38.30
2022-12-01T01:17:24.098Z,41.77
2022-12-01T01:19:53.027Z,41.07
2022-12-01T01:22:20.423Z,38.43
2022-12-01T01:24:47.846Z,40.57
2022-12-01T01:27:15.206Z,38.00
2022-12-01T01:29:42.554Z,45.07
2022-12-01T01:32:09.971Z,41.53
2022-12-01T01:34:37.304Z,41.53
2022-12-01T01:37:04.683Z,40.23
2022-12-01T01:39:32.054Z,40.40
2022-12-01T01:41:59.452Z,39.97
2022-12-01T01:44:56.131Z,40.23
2022-12-01T01:47:33.943Z,39.60
2022-12-01T01:50:06.151Z,36.90
2022-12-01T01:52:35.141Z,35.23
2022-12-01T01:55:02.546Z,39.27
2022-12-01T01:57:31.660Z,39.93
2022-12-01T02:00:02.128Z,36.83
2022-12-01T02:02:44.772Z,39.07
2022-12-01T02:05:13.632Z,38.50
2022-12-01T02:07:42.192Z,36.87
2022-12-01T02:10:11.477Z,40.43
2022-12-01T02:12:51.748Z,37.03
2022-12-01T02:15:37.454Z,37.83
2022-12-01T02:18:22.287Z,40.70
2022-12-01T02:21:03.230Z,35.13
2022-12-01T02:23:39.727Z,34.17
2022-12-01T02:26:10.245Z,32.47
2022-12-01T02:28:55.482Z,32.97
2022-12-01T02:31:26.319Z,33.57
2022-12-01T02:33:59.327Z,32.70
2022-12-01T02:36:47.012Z,35.50
2022-12-01T02:39:19.626Z,33.90
2022-12-01T02:41:51.157Z,32.40
2022-12-01T02:44:36.821Z,35.13
2022-12-01T02:47:10.620Z,36.40
2022-12-01T02:49:41.307Z,37.30
2022-12-01T02:52:12.373Z,37.23
2022-12-01T02:54:43.523Z,39.23
2022-12-01T02:57:14.763Z,39.70
2022-12-01T02:59:43.937Z,41.53
2022-12-01T03:02:17.065Z,39.77
2022-12-01T03:04:47.440Z,38.93
2022-12-01T03:07:20.009Z,42.77
2022-12-01T03:10:00.606Z,48.83
2022-12-01T03:12:37.403Z,50.67
2022-12-01T03:15:13.454Z,53.43
2022-12-01T03:18:00.312Z,59.93
2022-12-01T03:20:47.222Z,55.70
2022-12-01T03:23:21.304Z,59.37
2022-12-01T03:25:50.140Z,66.13
2022-12-01T03:28:21.618Z,59.73
2022-12-01T03:30:56.696Z,62.70
2022-12-01T03:33:26.289Z,62.60
2022-12-01T03:36:00.474Z,61.97
2022-12-01T03:38:29.802Z,61.93
2022-12-01T03:40:59.453Z,63.40
2022-12-01T03:43:32.260Z,63.73
2022-12-01T03:46:15.900Z,66.07
2022-12-01T03:48:43.226Z,63.17
2022-12-01T03:51:22.281Z,64.37
2022-12-01T03:54:06.459Z,64.63
2022-12-01T03:56:35.628Z,66.03
2022-12-01T03:59:03.921Z,67.07
2022-12-01T04:01:32.889Z,64.10
2022-12-01T04:04:13.960Z,60.00
2022-12-01T04:06:42.701Z,59.67
2022-12-01T04:09:10.233Z,59.43
2022-12-01T04:11:56.176Z,61.27
2022-12-01T04:14:23.548Z,64.77
2022-12-01T04:16:50.824Z,63.00
2022-12-01T04:19:22.323Z,61.10
2022-12-01T04:21:49.590Z,58.37
2022-12-01T04:24:20.272Z,61.40
2022-12-01T04:26:48.399Z,57.87
2022-12-01T04:29:15.673Z,61.23
2022-12-01T04:31:45.612Z,60.83
2022-12-01T04:34:18.255Z,60.70
2022-12-01T04:36:45.595Z,59.10
2022-12-01T04:39:15.650Z,60.73
2022-12-01T04:41:45.748Z,61.77
2022-12-01T04:44:14.807Z,62.40
2022-12-01T04:46:42.218Z,61.47
2022-12-01T04:49:09.664Z,62.33
2022-12-01T04:51:38.370Z,60.73
2022-12-01T04:54:08.274Z,62.03
2022-12-01T04:56:37.571Z,62.17
2022-12-01T04:59:04.946Z,61.13
2022-12-01T05:01:32.332Z,61.80
2022-12-01T05:03:59.649Z,61.37
2022-12-01T05:06:29.363Z,62.23
2022-12-01T05:08:58.192Z,60.03
2022-12-01T05:11:28.584Z,58.97
2022-12-01T05:13:58.679Z,60.17
2022-12-01T05:16:31.665Z,63.03
2022-12-01T05:19:18.748Z,57.00
2022-12-01T05:21:49.571Z,58.80
2022-12-01T05:24:19.174Z,60.63
2022-12-01T05:26:48.363Z,60.47
2022-12-01T05:29:17.725Z,70.75
2022-12-01T05:31:48.425Z,64.30
2022-12-01T05:34:18.625Z,62.00
2022-12-01T05:36:45.940Z,62.63
2022-12-01T05:39:13.212Z,61.27
2022-12-01T05:41:44.384Z,58.83
2022-12-01T05:44:13.491Z,59.97
2022-12-01T05:46:42.855Z,59.77
2022-12-01T05:49:10.164Z,59.67
2022-12-01T05:51:40.154Z,57.23
2022-12-01T05:54:07.468Z,58.10
2022-12-01T05:56:34.789Z,54.43
2022-12-01T05:59:02.413Z,54.03
2022-12-01T06:01:29.684Z,52.77
2022-12-01T06:03:57.155Z,56.60
2022-12-01T06:06:31.413Z,55.20
2022-12-01T06:08:58.837Z,51.87
2022-12-01T06:11:26.122Z,57.67
2022-12-01T06:13:53.384Z,56.87
2022-12-01T06:16:22.713Z,54.03
2022-12-01T06:18:50.042Z,53.90
2022-12-01T06:21:17.358Z,52.20
2022-12-01T06:23:44.935Z,55.20
2022-12-01T06:26:15.167Z,55.00
2022-12-01T06:28:44.231Z,51.30
2022-12-01T06:31:13.387Z,56.03
2022-12-01T06:33:42.783Z,51.87
2022-12-01T06:36:13.190Z,54.07
2022-12-01T06:38:42.649Z,55.47
2022-12-01T06:41:09.948Z,57.13
2022-12-01T06:43:40.599Z,55.73
2022-12-01T06:46:14.784Z,55.63
2022-12-01T06:48:48.151Z,56.73
2022-12-01T06:51:15.398Z,58.33
2022-12-01T06:53:45.768Z,58.10
2022-12-01T06:56:13.401Z,57.10
2022-12-01T06:58:43.362Z,55.53
2022-12-01T07:01:14.327Z,45.83
2022-12-01T07:03:42.828Z,53.00
2022-12-01T07:06:10.164Z,57.47
2022-12-01T07:08:37.390Z,55.77
2022-12-01T07:11:07.231Z,57.33
2022-12-01T07:13:34.746Z,53.60
2022-12-01T07:16:03.092Z,54.40
2022-12-01T07:18:31.385Z,56.03
2022-12-01T07:21:05.165Z,56.27
2022-12-01T07:23:32.643Z,59.17
2022-12-01T07:26:03.867Z,57.43
2022-12-01T07:28:34.386Z,58.77
2022-12-01T07:31:03.411Z,52.57
2022-12-01T07:33:34.910Z,56.63
2022-12-01T07:36:02.456Z,61.20
2022-12-01T07:38:33.249Z,61.70
2022-12-01T07:41:11.731Z,58.50
2022-12-01T07:43:41.568Z,58.77
2022-12-01T07:46:17.172Z,63.50
2022-12-01T07:48:53.105Z,55.63
2022-12-01T07:51:21.467Z,61.60
2022-12-01T07:53:51.735Z,61.30
2022-12-01T07:56:21.764Z,58.37
2022-12-01T07:58:53.400Z,60.87
2022-12-01T08:01:27.568Z,58.40
2022-12-01T08:03:55.889Z,63.07
2022-12-01T08:06:23.613Z,62.43
2022-12-01T08:08:54.492Z,57.77
2022-12-01T08:11:24.666Z,57.27
2022-12-01T08:13:52.833Z,53.07
2022-12-01T08:16:21.264Z,54.37
2022-12-01T08:18:50.683Z,53.20
2022-12-01T08:21:21.646Z,56.17
2022-12-01T08:23:56.279Z,53.07
2022-12-01T08:26:24.567Z,57.77
2022-12-01T08:28:52.387Z,56.10
2022-12-01T08:31:41.411Z,55.43
2022-12-01T08:34:08.740Z,59.87
2022-12-01T08:36:36.523Z,55.13
2022-12-01T08:39:04.310Z,57.13
2022-12-01T08:41:31.790Z,59.33
2022-12-01T08:44:02.319Z,54.93
2022-12-01T08:46:32.269Z,59.07
2022-12-01T08:48:59.929Z,57.57
2022-12-01T08:51:27.332Z,62.97
2022-12-01T08:53:55.362Z,48.97
2022-12-01T08:56:27.657Z,48.60
2022-12-01T08:58:55.217Z,49.43
2022-12-01T09:01:22.742Z,45.83
2022-12-01T09:04:05.128Z,42.60
2022-12-01T09:06:33.727Z,42.63
2022-12-01T09:09:01.278Z,46.40
2022-12-01T09:11:28.610Z,46.20
2022-12-01T09:13:56.076Z,46.80
2022-12-01T09:16:23.436Z,43.03
2022-12-01T09:18:50.800Z,44.83
2022-12-01T09:21:19.452Z,43.73
2022-12-01T09:23:49.795Z,44.40
2022-12-01T09:26:18.911Z,42.63
2022-12-01T09:28:56.408Z,43.53
2022-12-01T09:31:23.821Z,44.47
2022-12-01T09:34:09.509Z,45.53
2022-12-01T09:36:37.290Z,46.13
2022-12-01T09:39:05.417Z,42.43
2022-12-01T09:41:38.452Z,43.70
2022-12-01T09:44:13.860Z,45.07
2022-12-01T09:46:47.293Z,40.23
2022-12-01T09:49:17.681Z,44.17
2022-12-01T09:51:45.270Z,45.60
2022-12-01T09:54:14.063Z,41.77
2022-12-01T09:56:50.227Z,41.13
2022-12-01T09:59:20.533Z,42.93
2022-12-01T10:01:49.749Z,43.10
2022-12-01T10:04:29.334Z,42.20
2022-12-01T10:06:59.685Z,43.23
2022-12-01T10:09:50.641Z,41.50
2022-12-01T10:12:19.296Z,41.97
2022-12-01T10:14:47.437Z,39.13
2022-12-01T10:17:14.779Z,43.93
2022-12-01T10:19:48.592Z,43.53
2022-12-01T10:22:34.977Z,43.30
2022-12-01T10:25:07.528Z,41.20
2022-12-01T10:42:57.469Z,47.37
2022-12-01T10:45:29.528Z,47.37
2022-12-01T10:48:16.383Z,40.73
2022-12-01T10:50:47.880Z,40.33
2022-12-01T10:53:36.642Z,40.33
2022-12-01T10:56:10.905Z,41.33
2022-12-01T10:58:47.935Z,42.20
2022-12-01T11:01:23.583Z,41.30
2022-12-01T11:04:17.432Z,40.20
2022-12-01T11:06:50.087Z,39.57
2022-12-01T11:09:24.516Z,40.10
2022-12-01T11:12:02.464Z,40.43
2022-12-01T11:14:35.516Z,38.47
2022-12-01T11:17:35.447Z,39.53
2022-12-01T11:20:21.639Z,38.37
2022-12-01T11:22:49.235Z,39.73
2022-12-01T11:25:25.824Z,39.03
2022-12-01T11:28:01.860Z,37.13
2022-12-01T11:30:30.494Z,41.80
2022-12-01T11:32:59.763Z,39.17
2022-12-01T11:35:30.211Z,41.97
2022-12-01T11:38:29.367Z,40.73
2022-12-01T11:40:52.985Z,36.80
2022-12-01T11:43:43.728Z,39.37
2022-12-01T11:46:14.071Z,42.23
2022-12-01T11:48:41.619Z,39.57
2022-12-01T11:51:11.821Z,39.40
2022-12-01T11:53:39.415Z,38.30
2022-12-01T11:56:29.266Z,38.33
2022-12-01T11:58:59.988Z,35.77
2022-12-01T12:01:27.377Z,42.53
2022-12-01T12:03:54.811Z,41.20
2022-12-01T12:06:45.504Z,41.27
2022-12-01T12:09:16.666Z,40.87
2022-12-01T12:11:53.369Z,39.70
2022-12-01T12:14:38.465Z,39.87
2022-12-01T12:17:14.442Z,40.63
2022-12-01T12:20:13.105Z,42.93
2022-12-01T12:23:02.731Z,41.87
2022-12-01T12:25:30.553Z,38.60
2022-12-01T12:28:06.323Z,38.40
2022-12-01T12:30:42.160Z,40.87
2022-12-01T12:33:22.443Z,41.60
2022-12-01T12:36:00.638Z,41.37
2022-12-01T12:38:31.331Z,42.00
2022-12-01T12:41:02.875Z,41.70
2022-12-01T12:43:30.462Z,38.80
2022-12-01T12:46:16.805Z,38.47
2022-12-01T12:49:11.734Z,34.47
2022-12-01T12:51:37.519Z,39.30
2022-12-01T12:54:23.765Z,43.00
2022-12-01T12:56:54.150Z,42.20
2022-12-01T12:59:27.442Z,42.80
2022-12-01T13:02:00.462Z,41.17
2022-12-01T13:04:49.809Z,41.70
2022-12-01T13:07:17.329Z,42.83
2022-12-01T13:09:47.992Z,40.47
2022-12-01T13:12:20.189Z,40.83
2022-12-01T13:14:50.383Z,41.57
2022-12-01T13:17:21.287Z,39.03
2022-12-01T13:19:49.089Z,41.53
2022-12-01T13:22:18.906Z,52.92
2022-12-01T13:24:46.432Z,43.17
2022-12-01T13:27:14.533Z,44.23
2022-12-01T13:29:46.073Z,42.03
2022-12-01T13:32:32.174Z,41.30
2022-12-01T13:35:00.569Z,49.80
2022-12-01T13:37:29.797Z,43.87
2022-12-01T13:40:07.429Z,41.97
2022-12-01T13:42:35.710Z,41.93
2022-12-01T13:45:08.800Z,42.90
2022-12-01T13:47:39.674Z,37.93
2022-12-01T13:50:25.761Z,40.40
2022-12-01T13:53:07.480Z,41.20
2022-12-01T13:55:34.948Z,41.70
2022-12-01T13:58:02.496Z,42.30
2022-12-01T14:00:58.796Z,41.90
2022-12-01T14:03:29.337Z,40.73
2022-12-01T14:05:57.504Z,40.93
2022-12-01T14:08:26.225Z,40.53
2022-12-01T14:10:55.286Z,42.13
2022-12-01T14:13:23.251Z,38.90
2022-12-01T14:16:09.120Z,37.70
2022-12-01T14:18:38.528Z,40.57
2022-12-01T14:21:07.728Z,32.80
2022-12-01T14:23:36.386Z,38.20
2022-12-01T14:26:12.991Z,41.30
2022-12-01T14:28:55.855Z,40.40
2022-12-01T14:31:44.804Z,42.57
2022-12-01T14:34:19.143Z,43.07
2022-12-01T14:36:52.366Z,42.30
2022-12-01T14:39:22.130Z,41.33
2022-12-01T14:41:52.014Z,40.50
2022-12-01T14:44:35.891Z,36.10
2022-12-01T14:47:12.676Z,42.73
2022-12-01T14:49:52.945Z,41.77
2022-12-01T14:52:29.539Z,41.43
2022-12-01T14:54:58.901Z,43.80
2022-12-01T14:57:32.770Z,44.00
2022-12-01T15:00:05.458Z,42.77
2022-12-01T15:02:32.994Z,40.20
2022-12-01T15:05:11.816Z,37.80
2022-12-01T15:07:40.553Z,43.30
2022-12-01T15:10:16.797Z,43.17
2022-12-01T15:12:44.232Z,44.10
2022-12-01T15:15:23.451Z,43.10
2022-12-01T15:17:52.343Z,33.80
2022-12-01T15:20:28.708Z,39.43
2022-12-01T15:22:56.652Z,42.77
2022-12-01T15:25:24.144Z,44.40
2022-12-01T15:28:04.574Z,35.77
2022-12-01T15:30:32.328Z,41.50
2022-12-01T15:33:00.445Z,43.27
2022-12-01T15:35:28.088Z,44.43
2022-12-01T15:37:56.231Z,44.73
2022-12-01T15:43:21.848Z,43.43
2022-12-01T15:45:49.355Z,45.10
2022-12-01T15:48:18.638Z,44.30
2022-12-01T15:50:49.107Z,42.57
2022-12-01T15:53:29.354Z,40.40
2022-12-01T15:55:59.266Z,41.67
2022-12-01T15:58:56.461Z,42.83
2022-12-01T16:01:30.142Z,46.13
2022-12-01T16:04:05.592Z,45.87
2022-12-01T16:06:38.156Z,38.87
2022-12-01T16:09:20.165Z,33.63
2022-12-01T16:12:04.362Z,43.23
2022-12-01T16:14:32.269Z,44.07
2022-12-01T16:17:00.578Z,43.33
2022-12-01T16:19:31.920Z,42.67
2022-12-01T16:22:02.804Z,39.70
2022-12-01T16:24:50.809Z,37.47
2022-12-01T16:27:23.421Z,30.57
2022-12-01T16:29:58.488Z,40.07
2022-12-01T16:32:33.174Z,40.73
2022-12-01T16:35:00.889Z,38.90
2022-12-01T16:37:28.705Z,41.67
2022-12-01T16:39:56.086Z,41.97
2022-12-01T16:42:23.467Z,39.37
2022-12-01T16:44:54.571Z,43.60
2022-12-01T16:47:23.229Z,40.87
2022-12-01T16:49:50.912Z,41.70
2022-12-01T16:55:19.769Z,41.67
2022-12-01T16:57:47.145Z,45.33
2022-12-01T17:00:14.910Z,44.77
2022-12-01T17:02:42.291Z,43.83
2022-12-01T17:05:14.334Z,40.70
2022-12-01T17:07:42.548Z,44.30
2022-12-01T17:10:10.524Z,47.23
2022-12-01T17:12:38.640Z,44.17
2022-12-01T17:15:06.927Z,45.63
2022-12-01T17:17:34.977Z,41.23
2022-12-01T17:20:02.675Z,45.67
2022-12-01T17:22:30.268Z,47.30
2022-12-01T17:24:58.047Z,45.43
2022-12-01T17:27:27.638Z,52.83
2022-12-01T17:29:55.669Z,40.73
2022-12-01T17:32:23.659Z,44.93
2022-12-01T17:34:54.014Z,48.87
2022-12-01T17:37:21.963Z,46.73
2022-12-01T17:39:50.546Z,47.10
2022-12-01T17:42:18.105Z,51.70
2022-12-01T17:44:45.555Z,45.67
2022-12-01T17:47:13.284Z,52.07
2022-12-01T17:49:41.507Z,48.23
2022-12-01T17:52:09.030Z,47.53
2022-12-01T17:54:36.447Z,47.87
2022-12-01T17:57:03.904Z,47.50
2022-12-01T17:59:31.434Z,48.53
2022-12-01T18:02:00.207Z,48.80
2022-12-01T18:04:27.643Z,49.20
2022-12-01T18:06:55.108Z,52.87
2022-12-01T18:09:23.024Z,45.97
2022-12-01T18:11:50.866Z,47.90
2022-12-01T18:14:18.318Z,49.20
2022-12-01T18:16:45.892Z,47.63
2022-12-01T18:19:13.460Z,51.80
2022-12-01T18:21:41.217Z,51.70
2022-12-01T18:24:09.391Z,48.53
2022-12-01T18:26:38.241Z,49.90
2022-12-01T18:29:07.804Z,48.23
2022-12-01T18:31:35.864Z,45.50
2022-12-01T18:34:03.890Z,49.57
2022-12-01T18:36:32.420Z,47.50
2022-12-01T18:39:00.572Z,49.13
2022-12-01T18:41:28.446Z,47.47
2022-12-01T18:43:56.124Z,46.87
2022-12-01T18:46:23.784Z,47.83
2022-12-01T18:48:52.459Z,43.47
2022-12-01T18:51:20.619Z,45.80
2022-12-01T18:53:48.081Z,45.13
2022-12-01T18:56:15.726Z,46.40
2022-12-01T18:58:43.168Z,47.10
2022-12-01T19:01:24.604Z,46.77
2022-12-01T19:03:52.454Z,48.27
2022-12-01T19:06:19.852Z,48.80
2022-12-01T19:08:47.552Z,44.90
2022-12-01T19:11:14.958Z,47.70
2022-12-01T19:13:42.455Z,47.20
2022-12-01T19:16:12.868Z,44.13
2022-12-01T19:18:40.910Z,46.03
2022-12-01T19:21:09.484Z,49.03
2022-12-01T19:23:37.194Z,44.33
2022-12-01T19:26:09.791Z,46.03
2022-12-01T19:28:37.951Z,42.23
2022-12-01T19:31:09.773Z,45.53
2022-12-01T19:33:37.712Z,43.30
2022-12-01T19:36:09.467Z,48.13
2022-12-01T19:38:37.162Z,41.97
2022-12-01T19:41:05.439Z,58.80
2022-12-01T19:43:37.019Z,49.63
2022-12-01T19:46:14.715Z,46.73
2022-12-01T19:48:42.523Z,45.83
2022-12-01T19:51:17.567Z,42.40
2022-12-01T19:53:45.093Z,44.23
2022-12-01T19:56:12.679Z,43.40
2022-12-01T19:58:40.387Z,44.60
2022-12-01T20:01:09.127Z,47.33
2022-12-01T20:03:37.722Z,57.15
2022-12-01T20:06:06.519Z,47.30
2022-12-01T20:08:36.053Z,51.10
2022-12-01T20:11:04.343Z,46.83
2022-12-01T20:13:32.591Z,47.43
2022-12-01T20:16:07.703Z,45.87
2022-12-01T20:18:35.130Z,50.77
2022-12-01T20:21:03.692Z,46.97
2022-12-01T20:23:31.228Z,48.50
2022-12-01T20:25:59.460Z,45.90
2022-12-01T20:28:26.940Z,47.90
2022-12-01T20:30:54.569Z,46.90
2022-12-01T20:33:22.038Z,44.63
2022-12-01T20:35:50.138Z,44.03
2022-12-01T20:38:18.423Z,44.93
2022-12-01T20:40:50.363Z,46.10
2022-12-01T20:43:18.006Z,46.70
2022-12-01T20:45:48.348Z,47.83
2022-12-01T20:48:16.309Z,46.47
2022-12-01T20:50:44.697Z,41.97
2022-12-01T20:53:16.199Z,47.27
2022-12-01T20:55:49.691Z,40.50
2022-12-01T20:58:45.285Z,45.97
2022-12-01T21:01:14.872Z,45.50
2022-12-01T21:04:21.892Z,48.00
2022-12-01T21:07:37.708Z,46.73
2022-12-01T21:10:06.667Z,46.77
2022-12-01T21:12:57.706Z,48.73
2022-12-01T21:15:26.875Z,44.93
2022-12-01T21:17:58.056Z,42.53
2022-12-01T21:20:29.287Z,50.93
2022-12-01T21:23:02.593Z,43.03
2022-12-01T21:25:30.980Z,42.73
2022-12-01T21:30:42.590Z,44.77
2022-12-01T21:33:19.243Z,48.60
2022-12-01T21:35:46.822Z,50.87
2022-12-01T21:38:17.781Z,48.83
2022-12-01T21:40:49.597Z,46.83
2022-12-01T21:43:19.308Z,46.20
2022-12-01T21:45:47.079Z,49.97
2022-12-01T21:48:16.345Z,49.00
2022-12-01T21:50:44.762Z,45.97
2022-12-01T21:53:15.406Z,47.80
2022-12-01T21:55:47.005Z,49.83
2022-12-01T21:58:20.323Z,50.57
2022-12-01T22:00:47.939Z,48.40
2022-12-01T22:03:33.811Z,46.13
2022-12-01T22:09:00.467Z,46.20
2022-12-01T22:11:29.119Z,49.03
2022-12-01T22:14:13.517Z,44.57
2022-12-01T22:16:42.497Z,47.90
2022-12-01T22:19:16.509Z,48.77
2022-12-01T22:21:46.816Z,43.63
2022-12-01T22:24:28.017Z,42.20
2022-12-01T22:27:17.568Z,45.80
2022-12-01T22:29:46.360Z,46.93
2022-12-01T22:32:14.115Z,47.60
2022-12-01T22:34:53.095Z,45.27
2022-12-01T22:37:21.960Z,45.73
2022-12-01T22:39:51.385Z,46.00
2022-12-01T22:42:20.733Z,42.17
2022-12-01T22:44:48.584Z,39.83
2022-12-01T22:47:16.353Z,42.73
2022-12-01T22:49:43.764Z,42.53
2022-12-01T22:52:14.323Z,45.17
2022-12-01T22:54:46.745Z,47.23
2022-12-01T22:57:20.269Z,40.73
2022-12-01T22:59:48.033Z,39.77
2022-12-01T23:02:20.960Z,45.93
2022-12-01T23:04:49.796Z,47.37
2022-12-01T23:07:31.279Z,45.97
2022-12-01T23:10:06.482Z,44.80
2022-12-01T23:12:35.168Z,49.03
2022-12-01T23:15:14.818Z,38.63
2022-12-01T23:17:42.189Z,43.10
2022-12-01T23:20:28.621Z,46.90
2022-12-01T23:22:57.162Z,45.53
2022-12-01T23:25:25.290Z,43.80
2022-12-01T23:27:53.752Z,43.73
2022-12-01T23:30:22.247Z,46.63
2022-12-01T23:33:09.926Z,46.67
2022-12-01T23:35:57.558Z,45.63
2022-12-01T23:38:26.757Z,46.03
2022-12-01T23:40:56.426Z,47.03
2022-12-01T23:43:25.878Z,45.93
2022-12-01T23:46:03.197Z,43.13
2022-12-01T23:48:36.626Z,42.93
2022-12-01T23:51:05.077Z,36.47
2022-12-01T23:53:33.883Z,36.73
2022-12-01T23:56:04.369Z,36.83
2022-12-01T23:58:31.795Z,42.40
